Time;durP1;ratioP1;P1;durP2;ratioP2;P2;SDS_P1;SDS_P2;PMS_P1;PMS_P2;Temp;Humidity;BMP_temperature;BMP_pressure;BME280_temperature;BME280_humidity;BME280_pressure;Samples;Min_cycle;Max_cycle;Signal;HPM_P1;HPM_P2
2022/07/15 00:00:13;;;;;;;10.20;4.20;;;;;;;16.38;63.38;99809.72;5099348;28;20035;-57
2022/07/15 00:02:39;;;;;;;10.38;4.00;;;;;;;16.28;64.05;99807.00;5098489;27;20057;-58
2022/07/15 00:05:05;;;;;;;14.07;4.55;;;;;;;16.38;64.33;99811.63;5102799;27;20036;-57
2022/07/15 00:07:31;;;;;;;12.35;4.65;;;;;;;16.12;63.99;99800.69;5117822;27;20026;-57
2022/07/15 00:10:15;;;;;;;16.75;4.50;;;;;;;16.15;64.23;99793.97;5119248;27;20027;-58
2022/07/15 00:12:45;;;;;;;14.32;4.50;;;;;;;16.23;64.09;99808.88;5118013;27;20042;-57
2022/07/15 00:15:10;;;;;;;11.98;4.53;;;;;;;16.01;64.51;99804.44;5096137;28;20016;-60
2022/07/15 00:17:36;;;;;;;14.57;4.85;;;;;;;16.04;64.64;99798.50;5118174;27;20643;-58
2022/07/15 00:20:01;;;;;;;13.00;4.63;;;;;;;15.92;65.38;99800.63;5118507;28;20027;-57
2022/07/15 00:22:27;;;;;;;13.23;4.47;;;;;;;15.95;65.54;99794.72;5118457;28;20030;-57
2022/07/15 00:24:52;;;;;;;11.38;4.18;;;;;;;15.99;65.14;99789.56;5118788;27;20015;-58
2022/07/15 00:27:18;;;;;;;14.00;4.60;;;;;;;15.90;65.31;99789.25;5128969;27;20023;-57
2022/07/15 00:29:43;;;;;;;17.75;4.60;;;;;;;15.82;65.78;99785.16;5120162;27;20571;-57
2022/07/15 00:32:09;;;;;;;10.32;4.53;;;;;;;15.82;66.10;99785.16;5120255;27;20015;-57
2022/07/15 00:34:34;;;;;;;21.05;4.65;;;;;;;15.73;66.29;99792.97;5120158;27;20176;-57
2022/07/15 00:37:00;;;;;;;15.18;5.18;;;;;;;15.88;67.06;99794.13;5127361;27;20492;-57
2022/07/15 00:39:25;;;;;;;13.88;4.97;;;;;;;15.86;66.98;99793.56;5126108;27;20075;-57
2022/07/15 00:41:53;;;;;;;17.05;4.53;;;;;;;15.72;66.20;99791.38;5124631;27;20084;-58
2022/07/15 00:44:19;;;;;;;15.50;4.63;;;;;;;15.69;66.60;99786.47;5123079;27;20477;-57
2022/07/15 00:46:44;;;;;;;13.50;5.47;;;;;;;15.63;66.56;99792.09;5128862;27;20031;-57
2022/07/15 00:49:10;;;;;;;17.08;4.85;;;;;;;15.65;67.10;99785.34;5104506;27;20469;-57
2022/07/15 00:51:51;;;;;;;15.25;4.97;;;;;;;15.68;67.42;99789.41;5125488;27;20022;-57
2022/07/15 00:54:18;;;;;;;12.25;4.65;;;;;;;15.48;67.38;99790.13;5121546;27;20114;-56
2022/07/15 00:56:52;;;;;;;19.20;4.78;;;;;;;15.53;68.03;99795.53;5104910;27;20059;-56
2022/07/15 00:59:19;;;;;;;14.18;4.80;;;;;;;15.44;67.72;99800.59;5110186;27;20452;-56
2022/07/15 01:01:47;;;;;;;15.57;4.63;;;;;;;15.52;67.42;99796.59;5109423;27;20034;-57
2022/07/15 01:04:13;;;;;;;13.93;5.00;;;;;;;15.51;67.71;99800.38;5123095;27;20051;-56
2022/07/15 01:06:38;;;;;;;8.93;4.43;;;;;;;15.48;68.57;99795.50;5120749;27;20023;-56
2022/07/15 01:09:04;;;;;;;12.63;4.28;;;;;;;15.42;68.60;99791.13;5122704;27;20028;-56
2022/07/15 01:11:31;;;;;;;14.35;4.53;;;;;;;15.21;69.18;99801.81;5126036;27;20043;-56
2022/07/15 01:13:57;;;;;;;18.52;4.38;;;;;;;15.27;68.34;99794.53;5103213;28;20100;-56
2022/07/15 01:16:23;;;;;;;22.83;4.55;;;;;;;15.24;68.64;99795.88;5125874;27;20034;-56
2022/07/15 01:18:48;;;;;;;14.02;4.05;;;;;;;15.10;68.92;99797.38;5097266;28;20024;-56
2022/07/15 01:21:14;;;;;;;9.02;4.20;;;;;;;15.14;68.82;99795.81;5125879;27;20028;-56
2022/07/15 01:23:42;;;;;;;14.45;4.60;;;;;;;15.05;69.50;99800.88;5126802;27;20438;-56
2022/07/15 01:26:11;;;;;;;9.35;4.55;;;;;;;14.95;69.45;99805.38;5123523;27;20499;-56
2022/07/15 01:28:36;;;;;;;10.85;3.83;;;;;;;14.87;69.23;99812.03;5128555;27;20037;-56
2022/07/15 01:31:02;;;;;;;14.10;3.80;;;;;;;14.87;69.65;99807.47;5124030;27;20016;-56
2022/07/15 01:33:27;;;;;;;15.70;4.43;;;;;;;14.86;69.48;99805.03;5119175;27;20465;-56
2022/07/15 01:35:55;;;;;;;12.25;3.97;;;;;;;14.93;69.74;99810.22;5123531;27;20084;-56
2022/07/15 01:38:21;;;;;;;13.25;4.00;;;;;;;14.78;69.93;99808.22;5118678;27;20030;-56
2022/07/15 01:40:46;;;;;;;8.88;3.67;;;;;;;14.87;69.61;99815.56;5123977;27;20031;-56
2022/07/15 01:43:12;;;;;;;11.98;4.53;;;;;;;14.99;69.11;99809.19;5119502;27;20433;-56
2022/07/15 01:45:41;;;;;;;16.98;3.72;;;;;;;14.72;70.34;99812.72;5124223;27;20015;-56
2022/07/15 01:48:06;;;;;;;15.60;3.85;;;;;;;14.62;71.13;99812.63;5080323;27;20083;-57
2022/07/15 01:50:32;;;;;;;12.38;4.03;;;;;;;14.58;70.90;99820.44;5074079;27;20039;-57
2022/07/15 01:52:57;;;;;;;9.57;4.10;;;;;;;14.49;70.80;99818.41;5123904;27;20027;-57
2022/07/15 01:55:23;;;;;;;13.80;3.80;;;;;;;14.53;71.01;99817.69;5125180;27;20377;-56
2022/07/15 01:57:48;;;;;;;9.20;3.80;;;;;;;14.46;71.36;99825.94;5115353;27;20097;-57
2022/07/15 02:00:16;;;;;;;13.45;4.10;;;;;;;14.35;71.45;99816.13;5120031;27;20470;-56
2022/07/15 02:02:41;;;;;;;13.50;3.88;;;;;;;14.45;71.48;99820.78;5120845;27;20058;-57
2022/07/15 02:05:07;;;;;;;13.20;4.28;;;;;;;14.54;70.91;99815.78;5118841;27;20441;-56
2022/07/15 02:07:33;;;;;;;14.57;3.55;;;;;;;14.55;70.96;99822.81;5119828;27;20152;-56
2022/07/15 02:09:58;;;;;;;18.05;4.35;;;;;;;14.54;71.13;99824.69;5112942;27;20036;-58
2022/07/15 02:12:25;;;;;;;13.45;4.22;;;;;;;14.59;70.78;99822.03;5123747;27;20072;-58
2022/07/15 02:14:50;;;;;;;11.55;3.78;;;;;;;14.74;70.61;99818.69;5118702;27;20527;-58
2022/07/15 02:17:16;;;;;;;9.18;3.53;;;;;;;14.65;70.33;99820.19;5126032;27;20031;-57
2022/07/15 02:19:41;;;;;;;13.13;3.80;;;;;;;14.53;70.90;99827.63;5117088;27;20072;-58
2022/07/15 02:22:06;;;;;;;14.70;4.10;;;;;;;14.55;70.92;99828.19;5121932;27;20087;-58
2022/07/15 02:24:32;;;;;;;13.70;3.85;;;;;;;14.45;72.69;99831.56;5113819;27;20039;-57
2022/07/15 02:26:57;;;;;;;10.82;3.60;;;;;;;14.44;71.94;99829.94;5116202;27;20031;-57
2022/07/15 02:29:23;;;;;;;14.98;3.83;;;;;;;14.37;72.15;99830.13;5121309;27;20027;-57
2022/07/15 02:31:48;;;;;;;11.15;4.00;;;;;;;14.30;72.00;99834.09;5121261;27;20489;-57
2022/07/15 02:34:13;;;;;;;10.70;4.05;;;;;;;14.27;72.80;99832.72;5122399;27;20032;-57
2022/07/15 02:36:39;;;;;;;11.82;3.80;;;;;;;14.26;72.62;99831.09;5117962;27;20031;-58
2022/07/15 02:39:04;;;;;;;13.98;3.95;;;;;;;14.25;74.09;99834.84;5124553;27;20038;-57
2022/07/15 02:41:30;;;;;;;15.05;3.75;;;;;;;13.96;73.86;99836.94;5122894;27;20019;-58
2022/07/15 02:43:55;;;;;;;16.52;4.43;;;;;;;14.10;73.62;99837.34;5123546;27;20050;-57
2022/07/15 02:46:21;;;;;;;14.65;4.57;;;;;;;14.05;73.84;99838.09;5126257;27;20027;-57
2022/07/15 02:48:46;;;;;;;14.15;4.10;;;;;;;14.05;74.48;99837.28;5103053;28;20499;-58
2022/07/15 02:51:12;;;;;;;12.85;4.40;;;;;;;13.98;73.96;99838.31;5099528;27;20077;-57
2022/07/15 02:53:38;;;;;;;12.43;4.50;;;;;;;14.05;74.41;99842.69;5099840;27;20031;-58
2022/07/15 02:56:04;;;;;;;11.45;4.40;;;;;;;13.96;74.42;99851.22;5117828;27;20131;-58
2022/07/15 02:58:33;;;;;;;9.75;4.22;;;;;;;13.77;75.58;99847.16;5099784;27;20465;-58
2022/07/15 03:00:59;;;;;;;10.07;3.72;;;;;;;13.82;75.68;99849.94;5100042;27;20078;-58
2022/07/15 03:03:25;;;;;;;21.88;4.55;;;;;;;13.87;75.69;99844.63;5118040;27;20119;-57
2022/07/15 03:05:50;;;;;;;8.40;3.90;;;;;;;13.96;75.78;99856.59;5102538;27;20095;-57
2022/07/15 03:08:16;;;;;;;15.75;4.45;;;;;;;13.90;76.35;99860.28;5114372;27;20028;-57
2022/07/15 03:10:41;;;;;;;11.88;4.07;;;;;;;13.93;76.12;99865.19;5091915;28;20129;-57
2022/07/15 03:13:08;;;;;;;11.05;3.72;;;;;;;14.14;77.23;99870.84;5092341;28;20024;-57
2022/07/15 03:15:33;;;;;;;15.38;4.57;;;;;;;14.15;75.20;99870.59;5121491;27;20462;-57
2022/07/15 03:17:58;;;;;;;15.13;4.18;;;;;;;14.14;75.73;99876.22;5114184;27;20015;-57
2022/07/15 03:20:24;;;;;;;12.88;4.68;;;;;;;13.96;76.46;99877.34;5123016;27;20034;-57
2022/07/15 03:22:49;;;;;;;7.70;3.90;;;;;;;13.96;76.84;99871.97;5119083;27;20358;-57
2022/07/15 03:25:15;;;;;;;9.07;3.67;;;;;;;14.02;76.35;99871.75;5100571;27;20550;-57
2022/07/15 03:27:40;;;;;;;17.42;4.20;;;;;;;14.04;76.11;99882.31;5122509;27;20015;-57
2022/07/15 03:30:06;;;;;;;9.88;3.90;;;;;;;13.95;76.97;99884.63;5120353;27;20465;-57
2022/07/15 03:32:32;;;;;;;16.52;4.28;;;;;;;14.03;76.53;99884.19;5079773;28;20362;-57
2022/07/15 03:34:58;;;;;;;29.23;4.90;;;;;;;14.14;76.59;99881.63;5118252;27;20030;-57
2022/07/15 03:37:23;;;;;;;11.70;4.00;;;;;;;14.07;76.41;99879.09;5120850;27;20023;-57
2022/07/15 03:39:49;;;;;;;9.20;4.13;;;;;;;14.17;76.38;99889.22;5122017;27;20035;-57
2022/07/15 03:42:14;;;;;;;12.50;3.75;;;;;;;13.98;77.57;99886.81;5116324;27;20141;-57
2022/07/15 03:44:40;;;;;;;13.60;4.25;;;;;;;14.08;77.06;99896.94;5105128;27;20510;-57
2022/07/15 03:47:05;;;;;;;8.77;4.00;;;;;;;13.95;77.06;99903.50;5115655;27;20027;-57
2022/07/15 03:49:31;;;;;;;13.88;4.07;;;;;;;13.87;77.59;99909.28;5100819;28;20035;-57
2022/07/15 03:51:56;;;;;;;9.75;3.67;;;;;;;14.02;77.40;99908.69;5120264;27;20027;-57
2022/07/15 03:54:22;;;;;;;12.93;4.13;;;;;;;14.10;77.13;99915.53;5115197;27;20028;-57
2022/07/15 03:56:47;;;;;;;13.85;4.05;;;;;;;14.13;77.26;99912.34;5119633;27;20092;-57
2022/07/15 03:59:16;;;;;;;11.40;3.90;;;;;;;14.05;77.29;99907.38;5115650;27;20027;-57
2022/07/15 04:01:42;;;;;;;13.25;4.32;;;;;;;14.45;75.87;99913.31;5108686;27;20033;-56
2022/07/15 04:04:08;;;;;;;8.43;4.15;;;;;;;15.00;73.93;99913.38;5114877;27;20051;-57
2022/07/15 04:06:34;;;;;;;9.68;3.55;;;;;;;14.98;74.15;99915.53;5095804;28;20024;-57
2022/07/15 04:08:59;;;;;;;11.35;3.90;;;;;;;15.17;72.62;99914.09;5122037;27;20015;-57
2022/07/15 04:11:25;;;;;;;10.52;3.70;;;;;;;15.27;72.69;99916.88;5097846;27;20072;-57
2022/07/15 04:13:50;;;;;;;15.13;4.47;;;;;;;14.59;75.25;99921.84;5119488;27;20024;-57
2022/07/15 04:16:15;;;;;;;10.20;3.88;;;;;;;14.62;75.69;99920.53;5118069;27;20020;-57
2022/07/15 04:18:41;;;;;;;11.75;3.83;;;;;;;14.66;75.87;99914.38;5100592;28;20024;-57
2022/07/15 04:21:07;;;;;;;9.30;4.07;;;;;;;14.59;75.67;99915.66;5119838;27;20980;-57
2022/07/15 04:23:32;;;;;;;12.48;4.25;;;;;;;14.27;77.09;99915.50;5116049;28;20031;-57
2022/07/15 04:25:58;;;;;;;14.27;3.90;;;;;;;14.54;76.30;99923.69;5115996;28;20025;-57
2022/07/15 04:28:23;;;;;;;11.65;4.18;;;;;;;14.88;74.74;99919.75;5119025;28;20031;-56
2022/07/15 04:30:49;;;;;;;14.05;4.18;;;;;;;14.72;75.27;99915.25;5127964;28;20066;-57
2022/07/15 04:33:15;;;;;;;12.25;4.22;;;;;;;14.46;76.65;99925.72;5120220;28;20019;-57
2022/07/15 04:35:40;;;;;;;16.77;4.47;;;;;;;14.52;77.53;99923.88;5116222;28;20081;-57
2022/07/15 04:38:05;;;;;;;13.68;4.40;;;;;;;14.57;76.85;99921.28;5100422;28;20043;-57
2022/07/15 04:40:34;;;;;;;10.88;4.03;;;;;;;14.64;76.48;99927.31;5096472;28;20045;-57
2022/07/15 04:42:59;;;;;;;12.02;4.22;;;;;;;14.51;78.14;99924.97;5114425;28;20406;-57
2022/07/15 04:45:25;;;;;;;14.95;4.55;;;;;;;14.48;77.13;99921.94;5118676;28;20498;-57
2022/07/15 04:47:51;;;;;;;19.05;4.45;;;;;;;14.39;77.12;99919.69;5115401;28;20106;-57
2022/07/15 04:53:00;;;;;;;13.73;4.60;;;;;;;14.83;76.12;99925.09;5099836;28;20038;-57
2022/07/15 04:55:26;;;;;;;15.43;4.45;;;;;;;15.19;75.05;99921.94;5113959;28;20032;-57
2022/07/15 04:57:52;;;;;;;12.20;4.35;;;;;;;15.64;72.80;99921.50;5113054;28;20026;-57
2022/07/15 05:00:17;;;;;;;21.35;4.72;;;;;;;16.93;69.64;99918.41;5117118;28;20528;-57
2022/07/15 05:02:43;;;;;;;14.30;4.63;;;;;;;18.98;61.77;99928.91;5114048;28;20531;-58
2022/07/15 05:05:08;;;;;;;9.85;3.55;;;;;;;20.14;57.98;99921.97;5112823;28;20024;-58
2022/07/15 05:07:34;;;;;;;20.15;3.90;;;;;;;20.16;57.00;99936.13;5113493;28;20023;-58
2022/07/15 05:09:59;;;;;;;22.55;4.50;;;;;;;20.82;54.00;99935.34;5101135;27;20023;-58
2022/07/15 05:12:25;;;;;;;14.18;3.70;;;;;;;20.74;55.38;99938.69;5119878;27;20027;-58
2022/07/15 05:14:50;;;;;;;19.85;3.63;;;;;;;19.76;57.90;99944.38;5122998;27;20024;-58
2022/07/15 05:17:15;;;;;;;13.13;4.03;;;;;;;19.70;57.95;99947.47;5122254;27;20023;-58
2022/07/15 05:19:41;;;;;;;13.80;3.90;;;;;;;19.06;59.61;99952.78;5122930;27;20034;-58
2022/07/15 05:22:06;;;;;;;17.75;4.13;;;;;;;17.80;63.15;99940.16;5111237;27;20028;-58
2022/07/15 05:24:32;;;;;;;23.80;4.57;;;;;;;17.46;65.23;99948.81;5124479;27;20031;-58
2022/07/15 05:26:58;;;;;;;16.23;4.53;;;;;;;16.53;68.04;99941.53;5121853;27;20034;-57
2022/07/15 05:29:24;;;;;;;25.70;4.15;;;;;;;16.69;68.99;99945.09;5120249;27;20110;-57
2022/07/15 05:31:50;;;;;;;15.15;4.32;;;;;;;16.95;67.22;99943.34;5118567;27;20427;-58
2022/07/15 05:34:16;;;;;;;17.60;4.15;;;;;;;16.24;70.20;99953.84;5123517;27;20497;-57
2022/07/15 05:36:41;;;;;;;18.63;4.35;;;;;;;16.81;69.24;99953.84;5119024;27;20019;-58
2022/07/15 05:39:07;;;;;;;21.88;4.35;;;;;;;16.37;69.90;99950.63;5120758;27;20034;-59
2022/07/15 05:41:32;;;;;;;15.20;4.25;;;;;;;16.37;69.53;99958.75;5105867;27;20035;-59
2022/07/15 05:43:58;;;;;;;10.82;3.72;;;;;;;16.21;70.45;99959.78;5121798;27;20084;-59
2022/07/15 05:46:23;;;;;;;26.42;5.25;;;;;;;15.85;71.81;99968.47;5121112;27;20219;-58
2022/07/15 05:48:49;;;;;;;13.13;4.68;;;;;;;15.46;72.98;99962.44;5123596;27;20024;-59
2022/07/15 05:51:14;;;;;;;18.50;4.40;;;;;;;15.67;72.35;99966.91;5109831;27;20015;-58
2022/07/15 05:53:40;;;;;;;20.05;4.07;;;;;;;15.52;73.27;99969.50;5118011;27;20028;-58
2022/07/15 05:56:06;;;;;;;27.38;4.55;;;;;;;15.89;72.17;99968.75;5122388;27;20550;-56
2022/07/15 05:58:31;;;;;;;23.58;4.10;;;;;;;16.28;70.86;99968.47;5116569;27;20019;-58
2022/07/15 06:00:56;;;;;;;24.30;4.43;;;;;;;16.52;69.88;99956.13;5121556;27;20170;-57
2022/07/15 06:03:22;;;;;;;15.40;4.25;;;;;;;16.52;69.73;99966.13;5113778;27;20047;-59
2022/07/15 06:05:48;;;;;;;14.98;4.47;;;;;;;16.59;70.12;99951.28;5125007;27;20381;-57
2022/07/15 06:08:13;;;;;;;30.40;6.47;;;;;;;16.43;69.89;99957.72;5117339;27;20027;-57
2022/07/15 06:10:39;;;;;;;15.05;3.85;;;;;;;15.93;70.60;99953.66;5124573;27;20012;-58
2022/07/15 06:13:04;;;;;;;17.70;3.92;;;;;;;15.56;71.49;99953.59;5098985;27;20031;-57
2022/07/15 06:15:30;;;;;;;17.63;4.13;;;;;;;17.24;66.64;99957.19;5119015;27;20024;-56
2022/07/15 06:17:56;;;;;;;21.65;3.92;;;;;;;19.14;60.11;99965.75;5100329;27;20515;-56
2022/07/15 06:20:21;;;;;;;24.02;3.75;;;;;;;21.51;53.00;99962.16;5123538;27;20018;-56
2022/07/15 06:22:47;;;;;;;19.23;3.90;;;;;;;21.61;51.08;99959.25;5117104;27;20054;-57
2022/07/15 06:25:12;;;;;;;12.05;3.33;;;;;;;22.59;49.79;99959.13;5120235;27;20028;-57
2022/07/15 06:27:39;;;;;;;23.80;4.25;;;;;;;24.65;44.55;99961.22;5116817;27;20031;-57
2022/07/15 06:30:05;;;;;;;16.08;3.50;;;;;;;24.69;43.63;99959.47;5118540;27;20205;-57
2022/07/15 06:32:30;;;;;;;12.52;3.38;;;;;;;23.19;45.84;99963.59;5121171;27;20019;-57
2022/07/15 06:34:56;;;;;;;14.65;3.10;;;;;;;22.77;47.44;99972.97;5104471;27;20018;-57
2022/07/15 06:37:21;;;;;;;11.93;3.20;;;;;;;19.70;52.11;99969.22;5121282;27;20030;-56
2022/07/15 06:39:47;;;;;;;11.75;2.95;;;;;;;21.52;49.69;99971.97;5117128;27;20092;-56
2022/07/15 06:42:13;;;;;;;9.80;2.80;;;;;;;21.36;48.97;99979.53;5120626;27;20469;-56
2022/07/15 06:44:38;;;;;;;12.73;3.17;;;;;;;20.95;49.65;99969.22;5116626;27;20400;-56
2022/07/15 06:47:06;;;;;;;13.13;2.90;;;;;;;22.17;48.02;99976.59;5121958;27;20444;-57
2022/07/15 06:49:34;;;;;;;12.25;3.08;;;;;;;21.01;49.30;99978.94;5097923;27;20030;-57
2022/07/15 06:52:00;;;;;;;13.18;2.90;;;;;;;20.58;50.69;99976.22;5121823;27;20046;-56
2022/07/15 06:54:26;;;;;;;12.68;2.85;;;;;;;19.60;53.41;99983.66;5122942;27;20016;-56
2022/07/15 06:56:51;;;;;;;13.90;3.20;;;;;;;20.59;51.26;99979.75;5114593;27;20502;-56
2022/07/15 06:59:17;;;;;;;22.02;3.28;;;;;;;21.66;48.34;99978.25;5121052;27;20366;-56
2022/07/15 07:01:42;;;;;;;14.00;3.10;;;;;;;19.44;53.49;99993.81;5117383;27;20028;-56
2022/07/15 07:04:08;;;;;;;11.57;3.50;;;;;;;20.89;49.48;99987.56;5118616;27;20043;-56
2022/07/15 07:06:33;;;;;;;17.65;2.80;;;;;;;20.73;49.78;99994.28;5115859;27;20122;-56
2022/07/15 07:08:58;;;;;;;10.35;3.15;;;;;;;19.95;51.07;99996.19;5122396;27;20047;-56
2022/07/15 07:11:24;;;;;;;11.93;2.83;;;;;;;20.44;51.05;99997.88;5117631;27;20115;-56
2022/07/15 07:13:50;;;;;;;15.82;3.05;;;;;;;20.79;49.81;99993.16;5114349;27;20024;-56
2022/07/15 07:16:15;;;;;;;12.00;2.75;;;;;;;19.55;52.73;99989.94;5117883;27;20074;-57
2022/07/15 07:18:41;;;;;;;15.82;3.00;;;;;;;20.31;51.99;99998.53;5121497;27;20083;-56
2022/07/15 07:21:06;;;;;;;11.00;2.42;;;;;;;19.95;51.71;99990.75;5114851;27;20549;-56
2022/07/15 07:23:32;;;;;;;17.70;2.92;;;;;;;20.26;50.61;99993.16;5114250;27;20024;-56
2022/07/15 07:25:58;;;;;;;11.73;2.70;;;;;;;19.93;52.15;99989.41;5100453;27;20035;-57
2022/07/15 07:28:23;;;;;;;16.85;3.22;;;;;;;20.64;50.33;99993.31;5118936;27;20548;-56
2022/07/15 07:30:50;;;;;;;13.88;3.30;;;;;;;18.93;55.67;99994.13;5119963;27;20053;-56
2022/07/15 07:33:16;;;;;;;18.13;3.10;;;;;;;19.69;54.12;99992.84;5118579;27;20019;-56
2022/07/15 07:35:42;;;;;;;11.75;3.13;;;;;;;19.60;53.67;99989.91;5117258;27;20026;-56
2022/07/15 07:38:08;;;;;;;19.13;3.33;;;;;;;20.50;51.24;99992.38;5110793;27;20035;-56
2022/07/15 07:40:35;;;;;;;16.98;2.85;;;;;;;19.81;52.65;99995.22;5121840;27;20019;-56
2022/07/15 07:43:00;;;;;;;12.02;2.70;;;;;;;19.51;53.62;99991.59;5102508;27;20130;-58
2022/07/15 07:45:28;;;;;;;12.93;3.38;;;;;;;18.40;56.51;99999.22;5126401;27;20023;-58
2022/07/15 07:47:54;;;;;;;12.02;3.55;;;;;;;22.50;47.92;99991.00;5103661;27;20104;-57
2022/07/15 07:50:19;;;;;;;14.55;3.30;;;;;;;21.04;49.91;99997.44;5096932;28;20488;-58
2022/07/15 07:52:45;;;;;;;33.67;3.72;;;;;;;20.18;52.81;99985.63;5118812;27;20023;-57
2022/07/15 07:55:10;;;;;;;24.30;3.67;;;;;;;19.74;54.00;99989.28;5115370;27;20026;-57
2022/07/15 07:57:36;;;;;;;18.02;3.90;;;;;;;19.23;55.02;99989.63;5114968;27;20171;-57
2022/07/15 08:00:04;;;;;;;19.35;3.53;;;;;;;19.69;54.52;99997.47;5080699;27;20024;-57
2022/07/15 08:02:30;;;;;;;27.35;4.07;;;;;;;22.82;45.84;99992.81;5118370;27;20473;-57
2022/07/15 08:04:55;;;;;;;22.50;3.70;;;;;;;24.11;42.62;99987.91;5113109;27;20023;-57
2022/07/15 08:07:21;;;;;;;20.85;3.70;;;;;;;21.86;47.61;99988.03;5093298;28;20069;-56
2022/07/15 08:09:47;;;;;;;15.48;3.85;;;;;;;22.61;45.14;99986.13;5115894;27;20028;-56
2022/07/15 08:12:12;;;;;;;15.00;3.58;;;;;;;21.56;46.92;99992.06;5120280;27;20034;-57
2022/07/15 08:14:38;;;;;;;13.38;4.07;;;;;;;21.70;46.12;99984.75;5073543;28;20232;-58
2022/07/15 08:17:03;;;;;;;13.98;4.07;;;;;;;19.67;51.36;99988.75;5085826;28;20024;-58
2022/07/15 08:19:29;;;;;;;13.00;3.67;;;;;;;22.20;46.02;99980.66;5121491;27;20393;-57
2022/07/15 08:21:54;;;;;;;13.35;4.22;;;;;;;22.13;45.41;99986.47;5096735;28;20039;-58
2022/07/15 08:24:20;;;;;;;13.48;4.32;;;;;;;20.76;48.48;99977.38;5098490;28;20027;-57
2022/07/15 08:26:45;;;;;;;16.55;4.45;;;;;;;20.21;50.79;99979.59;5113888;28;20620;-57
2022/07/15 08:29:11;;;;;;;18.50;4.80;;;;;;;19.91;50.51;99988.88;5116323;28;20339;-57
2022/07/15 08:31:37;;;;;;;15.95;4.85;;;;;;;19.26;53.35;99983.63;5115276;28;20069;-56
2022/07/15 08:34:03;;;;;;;21.20;5.03;;;;;;;20.41;50.37;99976.66;5112306;28;20465;-56
2022/07/15 08:36:29;;;;;;;14.90;5.15;;;;;;;21.53;46.54;99979.03;5115676;28;20023;-57
2022/07/15 08:38:54;;;;;;;12.65;5.32;;;;;;;19.48;50.64;99978.59;5116683;28;20035;-59
2022/07/15 08:41:20;;;;;;;14.23;5.00;;;;;;;19.40;52.38;99995.50;5114602;28;20057;-57
2022/07/15 08:43:45;;;;;;;13.60;5.15;;;;;;;19.01;52.74;99988.13;5119601;28;20066;-57
2022/07/15 08:46:10;;;;;;;14.93;6.05;;;;;;;18.57;54.95;99994.25;5122420;27;20034;-57
2022/07/15 08:48:37;;;;;;;17.00;5.68;;;;;;;18.93;54.31;99991.44;5103503;27;20412;-59
2022/07/15 08:51:05;;;;;;;15.23;5.93;;;;;;;18.50;56.44;99989.13;5125446;27;20029;-55
2022/07/15 08:53:31;;;;;;;19.35;6.28;;;;;;;18.38;57.97;99990.53;5123975;27;20031;-56
2022/07/15 08:55:57;;;;;;;16.75;6.93;;;;;;;18.70;56.57;99993.66;5117233;27;20023;-58
2022/07/15 08:58:22;;;;;;;35.88;8.05;;;;;;;18.51;56.67;99992.63;5122233;27;20020;-57
2022/07/15 09:00:48;;;;;;;18.05;7.25;;;;;;;19.01;54.80;99993.56;5123463;27;20062;-56
2022/07/15 09:03:13;;;;;;;20.13;6.47;;;;;;;19.26;53.28;99989.06;5120227;27;20047;-56
2022/07/15 09:05:39;;;;;;;14.50;6.10;;;;;;;19.57;51.79;99985.06;5088224;28;20027;-56
2022/07/15 09:08:13;;;;;;;18.90;5.70;;;;;;;20.69;49.19;99987.78;5104037;27;20488;-56
2022/07/15 09:10:58;;;;;;;17.05;5.95;;;;;;;21.97;45.72;99985.94;5119416;27;20047;-56
2022/07/15 09:13:39;;;;;;;14.90;5.55;;;;;;;23.57;42.27;99987.06;5119063;27;20530;-56
2022/07/15 09:16:09;;;;;;;15.57;5.53;;;;;;;25.82;37.93;99981.47;5100227;27;20127;-56
2022/07/15 09:18:36;;;;;;;;;;;;;;;24.87;38.62;99984.19;5127061;27;20031;-56
2022/07/15 09:21:01;;;;;;;18.02;5.15;;;;;;;25.58;37.38;99979.22;5111578;27;20365;-56
2022/07/15 09:23:31;;;;;;;17.58;5.63;;;;;;;24.77;39.17;99982.56;5123625;27;20035;-56
2022/07/15 09:25:58;;;;;;;14.18;5.65;;;;;;;24.80;38.27;99981.91;5112220;27;20073;-56
2022/07/15 09:28:35;;;;;;;15.07;5.05;;;;;;;24.28;39.65;99982.50;5115397;27;20031;-56
2022/07/15 09:33:45;;;;;;;11.25;4.50;;;;;;;26.88;36.19;99975.25;5124333;27;20084;-56
2022/07/15 09:36:18;;;;;;;14.07;4.47;;;;;;;22.28;42.50;99960.84;5122293;27;20024;-56
2022/07/15 09:38:50;;;;;;;11.13;4.75;;;;;;;21.46;43.32;99967.69;5118609;27;20083;-56
2022/07/15 09:41:26;;;;;;;16.80;4.22;;;;;;;20.25;44.74;99973.28;5119039;27;20024;-58
2022/07/15 09:44:13;;;;;;;10.55;4.85;;;;;;;20.16;44.71;99972.28;5123878;27;20023;-56
2022/07/15 09:46:45;;;;;;;20.10;5.47;;;;;;;20.02;46.26;99968.66;5116468;27;20391;-57
2022/07/15 09:49:12;;;;;;;9.27;4.65;;;;;;;21.01;45.01;99972.69;5123931;27;20050;-57
2022/07/15 09:52:06;;;;;;;27.52;5.18;;;;;;;21.45;44.76;99977.00;5124418;27;20031;-56
2022/07/15 09:54:39;;;;;;;18.85;5.18;;;;;;;21.44;42.80;99988.97;5120966;27;20084;-57
2022/07/15 09:57:06;;;;;;;20.38;5.57;;;;;;;21.17;43.87;99976.00;5099420;27;20033;-57
2022/07/15 09:59:31;;;;;;;8.65;4.60;;;;;;;22.60;40.23;99973.59;5119023;27;20031;-56
2022/07/15 10:01:57;;;;;;;18.30;5.35;;;;;;;23.62;37.89;99982.28;5104664;27;20164;-56
2022/07/15 10:04:24;;;;;;;14.38;5.40;;;;;;;22.94;38.59;99978.63;5120670;27;20138;-56
2022/07/15 10:06:51;;;;;;;14.60;5.18;;;;;;;21.16;42.29;99974.38;5099247;27;20031;-57
2022/07/15 10:09:24;;;;;;;24.27;4.90;;;;;;;22.43;40.10;99970.66;5120240;27;20023;-56
2022/07/15 10:11:53;;;;;;;18.27;4.95;;;;;;;21.17;41.63;99971.38;5119797;27;20050;-57
2022/07/15 10:14:50;;;;;;;15.90;5.20;;;;;;;21.61;41.66;99964.72;5101457;28;20015;-56
2022/07/15 10:17:21;;;;;;;27.65;4.93;;;;;;;21.95;41.83;99975.31;5116941;27;20035;-56
2022/07/15 10:20:07;;;;;;;23.25;4.95;;;;;;;22.30;41.64;99970.34;5098985;28;20055;-56
2022/07/15 10:22:47;;;;;;;14.35;4.70;;;;;;;23.52;39.63;99968.84;5101837;27;20016;-57
2022/07/15 10:25:31;;;;;;;14.15;4.60;;;;;;;21.45;41.74;99977.00;5125520;27;20493;-57
2022/07/15 10:27:59;;;;;;;11.32;4.50;;;;;;;21.94;40.78;99981.06;5097069;27;20028;-57
2022/07/15 10:30:25;;;;;;;13.35;5.40;;;;;;;22.27;40.74;99973.69;5122333;27;20030;-57
2022/07/15 10:33:05;;;;;;;17.52;4.70;;;;;;;22.52;38.85;99972.38;5117783;27;20031;-57
2022/07/15 10:35:39;;;;;;;6.70;4.40;;;;;;;23.53;37.58;99977.84;5120698;27;20046;-56
2022/07/15 10:38:37;;;;;;;16.38;5.10;;;;;;;23.19;36.80;99957.31;5123558;27;20034;-57
2022/07/15 10:41:09;;;;;;;17.10;4.85;;;;;;;23.75;35.63;99964.19;5066163;27;20461;-57
2022/07/15 10:43:40;;;;;;;15.27;4.68;;;;;;;23.95;35.61;99970.28;5116365;27;20031;-57
2022/07/15 10:46:18;;;;;;;9.70;4.40;;;;;;;23.25;35.09;99953.34;5120185;27;20032;-57
2022/07/15 10:48:44;;;;;;;15.27;4.10;;;;;;;24.20;33.70;99953.16;5117061;27;20016;-56
2022/07/15 10:51:10;;;;;;;7.90;4.00;;;;;;;23.29;35.27;99940.69;5118086;27;20492;-57
2022/07/15 10:53:46;;;;;;;10.48;4.65;;;;;;;22.27;38.20;99942.84;5119469;27;20019;-56
2022/07/15 10:56:51;;;;;;;26.02;4.35;;;;;;;22.00;39.68;99949.06;5117900;27;20019;-57
2022/07/15 10:59:19;;;;;;;14.63;4.03;;;;;;;22.05;39.57;99944.31;5020753;28;20120;-57
2022/07/15 11:01:49;;;;;;;24.52;4.65;;;;;;;22.68;39.05;99958.41;5018936;28;20116;-57
2022/07/15 11:04:22;;;;;;;9.75;3.92;;;;;;;22.60;38.29;99955.28;5054651;27;20167;-56
2022/07/15 11:07:03;;;;;;;12.02;4.70;;;;;;;22.70;39.01;99954.25;5117282;27;20023;-56
2022/07/15 11:09:50;;;;;;;12.88;4.50;;;;;;;23.13;37.36;99948.41;5122869;27;20038;-56
2022/07/15 11:12:43;;;;;;;23.02;4.85;;;;;;;23.23;36.82;99952.84;5119164;27;20035;-57
2022/07/15 11:15:12;;;;;;;9.55;4.13;;;;;;;21.57;38.86;99951.97;5064238;27;20516;-56
2022/07/15 11:17:42;;;;;;;12.55;4.30;;;;;;;21.32;39.34;99946.59;5095530;28;20561;-57
2022/07/15 11:20:12;;;;;;;;;;;;;;;22.18;37.89;99935.31;5114198;27;20362;-56
2022/07/15 11:22:40;;;;;;;8.75;4.13;;;;;;;23.40;35.78;99939.31;5123970;27;19916;-57
2022/07/15 11:25:06;;;;;;;9.77;4.40;;;;;;;23.07;34.18;99936.00;5098063;28;20036;-56
2022/07/15 11:27:31;;;;;;;23.35;4.22;;;;;;;22.72;36.70;99932.09;5121309;27;20031;-58
2022/07/15 11:30:03;;;;;;;14.00;4.05;;;;;;;22.81;36.97;99932.97;5122023;27;20030;-56
2022/07/15 11:32:29;;;;;;;13.95;4.47;;;;;;;20.97;38.83;99938.97;5116222;27;20046;-57